sensor_id;sensor_type;location;lat;lon;timestamp;P1;durP1;ratioP1;P2;durP2;ratioP2
51738;SDS011;37815;52.692;6.226;2022-11-13T00:00:22;10.82;;;6.65;;
51738;SDS011;37815;52.692;6.226;2022-11-13T00:05:23;11.27;;;6.50;;
51738;SDS011;37815;52.692;6.226;2022-11-13T00:10:23;11.85;;;6.25;;
51738;SDS011;37815;52.692;6.226;2022-11-13T00:15:24;10.77;;;6.68;;
51738;SDS011;37815;52.692;6.226;2022-11-13T00:20:25;11.88;;;7.03;;
51738;SDS011;37815;52.692;6.226;2022-11-13T00:25:25;11.52;;;6.90;;
51738;SDS011;37815;52.692;6.226;2022-11-13T00:30:26;11.73;;;6.93;;
51738;SDS011;37815;52.692;6.226;2022-11-13T00:35:27;12.07;;;7.00;;
51738;SDS011;37815;52.692;6.226;2022-11-13T00:40:27;11.60;;;6.80;;
51738;SDS011;37815;52.692;6.226;2022-11-13T00:45:28;12.52;;;7.22;;
51738;SDS011;37815;52.692;6.226;2022-11-13T00:50:29;9.95;;;6.28;;
51738;SDS011;37815;52.692;6.226;2022-11-13T00:55:29;12.07;;;6.50;;
51738;SDS011;37815;52.692;6.226;2022-11-13T01:00:30;10.43;;;6.60;;
51738;SDS011;37815;52.692;6.226;2022-11-13T01:05:34;9.63;;;6.63;;
51738;SDS011;37815;52.692;6.226;2022-11-13T01:10:41;10.93;;;6.47;;
51738;SDS011;37815;52.692;6.226;2022-11-13T01:15:47;9.80;;;6.35;;
51738;SDS011;37815;52.692;6.226;2022-11-13T01:20:48;10.35;;;6.63;;
51738;SDS011;37815;52.692;6.226;2022-11-13T01:25:49;9.65;;;6.55;;
51738;SDS011;37815;52.692;6.226;2022-11-13T01:30:49;9.07;;;5.93;;
51738;SDS011;37815;52.692;6.226;2022-11-13T01:35:50;9.32;;;6.20;;
51738;SDS011;37815;52.692;6.226;2022-11-13T01:40:50;9.50;;;5.78;;
51738;SDS011;37815;52.692;6.226;2022-11-13T01:46:34;9.35;;;5.90;;
51738;SDS011;37815;52.692;6.226;2022-11-13T01:51:31;11.63;;;6.60;;
51738;SDS011;37815;52.692;6.226;2022-11-13T01:56:35;10.20;;;6.43;;
51738;SDS011;37815;52.692;6.226;2022-11-13T02:01:36;9.73;;;5.63;;
51738;SDS011;37815;52.692;6.226;2022-11-13T02:11:52;8.32;;;5.97;;
51738;SDS011;37815;52.692;6.226;2022-11-13T02:17:05;9.10;;;5.57;;
51738;SDS011;37815;52.692;6.226;2022-11-13T02:27:48;9.85;;;6.15;;
51738;SDS011;37815;52.692;6.226;2022-11-13T02:32:50;9.95;;;5.88;;
51738;SDS011;37815;52.692;6.226;2022-11-13T02:37:55;9.13;;;5.68;;
51738;SDS011;37815;52.692;6.226;2022-11-13T02:42:57;9.88;;;6.00;;
51738;SDS011;37815;52.692;6.226;2022-11-13T02:47:59;6.95;;;5.55;;
51738;SDS011;37815;52.692;6.226;2022-11-13T02:53:00;9.07;;;5.63;;
51738;SDS011;37815;52.692;6.226;2022-11-13T02:58:01;10.15;;;5.70;;
51738;SDS011;37815;52.692;6.226;2022-11-13T03:03:02;8.70;;;5.45;;
51738;SDS011;37815;52.692;6.226;2022-11-13T03:08:02;9.20;;;5.75;;
51738;SDS011;37815;52.692;6.226;2022-11-13T03:13:04;9.65;;;5.88;;
51738;SDS011;37815;52.692;6.226;2022-11-13T03:18:05;8.80;;;5.57;;
51738;SDS011;37815;52.692;6.226;2022-11-13T03:23:07;9.77;;;6.10;;
51738;SDS011;37815;52.692;6.226;2022-11-13T03:28:08;10.80;;;6.18;;
51738;SDS011;37815;52.692;6.226;2022-11-13T03:33:08;8.32;;;5.18;;
51738;SDS011;37815;52.692;6.226;2022-11-13T03:38:09;7.95;;;5.45;;
51738;SDS011;37815;52.692;6.226;2022-11-13T03:43:10;9.20;;;5.57;;
51738;SDS011;37815;52.692;6.226;2022-11-13T03:48:10;10.27;;;5.40;;
51738;SDS011;37815;52.692;6.226;2022-11-13T03:53:12;9.25;;;5.60;;
51738;SDS011;37815;52.692;6.226;2022-11-13T03:58:13;7.60;;;4.90;;
51738;SDS011;37815;52.692;6.226;2022-11-13T04:03:14;8.75;;;5.45;;
51738;SDS011;37815;52.692;6.226;2022-11-13T04:08:15;8.75;;;5.15;;
51738;SDS011;37815;52.692;6.226;2022-11-13T04:13:17;7.90;;;5.40;;
51738;SDS011;37815;52.692;6.226;2022-11-13T04:18:17;9.52;;;5.75;;
51738;SDS011;37815;52.692;6.226;2022-11-13T04:23:18;8.48;;;5.82;;
51738;SDS011;37815;52.692;6.226;2022-11-13T04:28:19;8.65;;;5.57;;
51738;SDS011;37815;52.692;6.226;2022-11-13T04:33:20;8.48;;;5.18;;
51738;SDS011;37815;52.692;6.226;2022-11-13T04:38:21;8.38;;;5.30;;
51738;SDS011;37815;52.692;6.226;2022-11-13T04:43:21;8.68;;;5.32;;
51738;SDS011;37815;52.692;6.226;2022-11-13T04:48:22;10.27;;;5.72;;
51738;SDS011;37815;52.692;6.226;2022-11-13T04:53:22;9.13;;;5.38;;
51738;SDS011;37815;52.692;6.226;2022-11-13T04:58:23;8.13;;;5.68;;
51738;SDS011;37815;52.692;6.226;2022-11-13T05:03:24;8.93;;;5.63;;
51738;SDS011;37815;52.692;6.226;2022-11-13T05:08:25;6.68;;;4.97;;
51738;SDS011;37815;52.692;6.226;2022-11-13T05:13:26;8.30;;;5.57;;
51738;SDS011;37815;52.692;6.226;2022-11-13T05:18:29;9.68;;;5.20;;
51738;SDS011;37815;52.692;6.226;2022-11-13T05:23:31;7.75;;;5.47;;
51738;SDS011;37815;52.692;6.226;2022-11-13T05:28:32;10.02;;;5.72;;
51738;SDS011;37815;52.692;6.226;2022-11-13T05:33:34;8.23;;;5.40;;
51738;SDS011;37815;52.692;6.226;2022-11-13T05:38:35;9.38;;;5.00;;
51738;SDS011;37815;52.692;6.226;2022-11-13T05:43:37;7.50;;;5.40;;
51738;SDS011;37815;52.692;6.226;2022-11-13T05:48:38;8.70;;;5.53;;
51738;SDS011;37815;52.692;6.226;2022-11-13T05:53:40;8.35;;;5.13;;
51738;SDS011;37815;52.692;6.226;2022-11-13T05:58:41;7.40;;;5.22;;
51738;SDS011;37815;52.692;6.226;2022-11-13T06:03:43;7.88;;;5.13;;
51738;SDS011;37815;52.692;6.226;2022-11-13T06:08:44;9.13;;;5.57;;
51738;SDS011;37815;52.692;6.226;2022-11-13T06:13:46;8.38;;;5.45;;
51738;SDS011;37815;52.692;6.226;2022-11-13T06:18:47;8.88;;;5.25;;
51738;SDS011;37815;52.692;6.226;2022-11-13T06:23:48;7.22;;;5.30;;
51738;SDS011;37815;52.692;6.226;2022-11-13T06:28:49;8.55;;;5.07;;
51738;SDS011;37815;52.692;6.226;2022-11-13T06:33:50;8.77;;;5.32;;
51738;SDS011;37815;52.692;6.226;2022-11-13T06:38:51;7.45;;;4.32;;
51738;SDS011;37815;52.692;6.226;2022-11-13T06:43:55;7.68;;;5.40;;
51738;SDS011;37815;52.692;6.226;2022-11-13T06:48:57;8.50;;;4.82;;
51738;SDS011;37815;52.692;6.226;2022-11-13T06:53:58;7.85;;;5.07;;
51738;SDS011;37815;52.692;6.226;2022-11-13T06:58:59;9.05;;;5.03;;
51738;SDS011;37815;52.692;6.226;2022-11-13T07:04:00;7.28;;;4.82;;
51738;SDS011;37815;52.692;6.226;2022-11-13T07:09:00;8.07;;;5.00;;
51738;SDS011;37815;52.692;6.226;2022-11-13T07:14:01;7.15;;;5.00;;
51738;SDS011;37815;52.692;6.226;2022-11-13T07:19:02;7.75;;;5.18;;
51738;SDS011;37815;52.692;6.226;2022-11-13T07:24:03;7.30;;;5.13;;
51738;SDS011;37815;52.692;6.226;2022-11-13T07:29:04;8.57;;;5.28;;
51738;SDS011;37815;52.692;6.226;2022-11-13T07:34:05;8.70;;;4.95;;
51738;SDS011;37815;52.692;6.226;2022-11-13T07:39:05;7.05;;;4.97;;
51738;SDS011;37815;52.692;6.226;2022-11-13T07:44:06;7.10;;;5.15;;
51738;SDS011;37815;52.692;6.226;2022-11-13T07:49:07;6.63;;;5.07;;
51738;SDS011;37815;52.692;6.226;2022-11-13T07:54:09;8.40;;;5.18;;
51738;SDS011;37815;52.692;6.226;2022-11-13T07:59:10;8.30;;;5.22;;
51738;SDS011;37815;52.692;6.226;2022-11-13T08:04:11;8.48;;;5.45;;
51738;SDS011;37815;52.692;6.226;2022-11-13T08:09:12;8.13;;;4.75;;
51738;SDS011;37815;52.692;6.226;2022-11-13T08:14:13;8.25;;;5.13;;
51738;SDS011;37815;52.692;6.226;2022-11-13T08:19:13;9.27;;;5.00;;
51738;SDS011;37815;52.692;6.226;2022-11-13T08:24:14;8.00;;;5.40;;
51738;SDS011;37815;52.692;6.226;2022-11-13T08:29:15;8.45;;;5.07;;
51738;SDS011;37815;52.692;6.226;2022-11-13T08:34:16;9.07;;;5.55;;
51738;SDS011;37815;52.692;6.226;2022-11-13T08:39:17;8.38;;;5.40;;
51738;SDS011;37815;52.692;6.226;2022-11-13T08:44:17;8.65;;;5.45;;
51738;SDS011;37815;52.692;6.226;2022-11-13T08:49:18;7.32;;;4.85;;
51738;SDS011;37815;52.692;6.226;2022-11-13T08:54:19;8.13;;;5.13;;
51738;SDS011;37815;52.692;6.226;2022-11-13T08:59:19;7.45;;;4.80;;
51738;SDS011;37815;52.692;6.226;2022-11-13T09:04:23;8.63;;;4.93;;
51738;SDS011;37815;52.692;6.226;2022-11-13T09:09:26;7.70;;;5.13;;
51738;SDS011;37815;52.692;6.226;2022-11-13T09:14:27;6.70;;;4.97;;
51738;SDS011;37815;52.692;6.226;2022-11-13T09:19:27;7.97;;;4.97;;
51738;SDS011;37815;52.692;6.226;2022-11-13T09:24:29;8.57;;;5.10;;
51738;SDS011;37815;52.692;6.226;2022-11-13T09:29:29;6.95;;;4.68;;
51738;SDS011;37815;52.692;6.226;2022-11-13T09:34:30;8.25;;;5.18;;
51738;SDS011;37815;52.692;6.226;2022-11-13T09:39:32;8.73;;;4.60;;
51738;SDS011;37815;52.692;6.226;2022-11-13T09:44:44;9.13;;;5.72;;
51738;SDS011;37815;52.692;6.226;2022-11-13T09:49:50;8.38;;;4.88;;
51738;SDS011;37815;52.692;6.226;2022-11-13T09:54:55;8.55;;;5.13;;
51738;SDS011;37815;52.692;6.226;2022-11-13T10:00:05;6.93;;;4.30;;
51738;SDS011;37815;52.692;6.226;2022-11-13T10:05:38;7.55;;;4.88;;
51738;SDS011;37815;52.692;6.226;2022-11-13T10:15:51;7.38;;;4.80;;
51738;SDS011;37815;52.692;6.226;2022-11-13T10:21:02;5.88;;;4.47;;
51738;SDS011;37815;52.692;6.226;2022-11-13T10:26:20;6.68;;;4.38;;
51738;SDS011;37815;52.692;6.226;2022-11-13T10:31:23;6.30;;;4.40;;
51738;SDS011;37815;52.692;6.226;2022-11-13T10:41:50;7.75;;;4.70;;
51738;SDS011;37815;52.692;6.226;2022-11-13T10:52:25;6.47;;;3.75;;
51738;SDS011;37815;52.692;6.226;2022-11-13T10:57:28;6.10;;;4.32;;
51738;SDS011;37815;52.692;6.226;2022-11-13T11:02:32;5.85;;;3.92;;
51738;SDS011;37815;52.692;6.226;2022-11-13T11:07:38;5.50;;;3.75;;
51738;SDS011;37815;52.692;6.226;2022-11-13T11:12:40;6.10;;;3.90;;
51738;SDS011;37815;52.692;6.226;2022-11-13T11:17:49;6.57;;;4.20;;
51738;SDS011;37815;52.692;6.226;2022-11-13T11:22:57;6.28;;;4.15;;
51738;SDS011;37815;52.692;6.226;2022-11-13T11:28:03;6.50;;;3.92;;
51738;SDS011;37815;52.692;6.226;2022-11-13T11:38:25;5.25;;;3.53;;
51738;SDS011;37815;52.692;6.226;2022-11-13T11:43:40;5.63;;;3.67;;
51738;SDS011;37815;52.692;6.226;2022-11-13T11:48:44;5.35;;;3.38;;
51738;SDS011;37815;52.692;6.226;2022-11-13T11:59:11;5.25;;;3.60;;
51738;SDS011;37815;52.692;6.226;2022-11-13T12:37:00;5.43;;;3.65;;
51738;SDS011;37815;52.692;6.226;2022-11-13T12:47:19;6.13;;;3.33;;
51738;SDS011;37815;52.692;6.226;2022-11-13T12:52:20;8.27;;;3.47;;
51738;SDS011;37815;52.692;6.226;2022-11-13T12:57:23;5.50;;;3.40;;
51738;SDS011;37815;52.692;6.226;2022-11-13T13:13:48;4.13;;;3.17;;
51738;SDS011;37815;52.692;6.226;2022-11-13T13:18:35;4.70;;;3.28;;
51738;SDS011;37815;52.692;6.226;2022-11-13T13:23:41;5.18;;;3.30;;
51738;SDS011;37815;52.692;6.226;2022-11-13T13:28:50;4.05;;;3.15;;
51738;SDS011;37815;52.692;6.226;2022-11-13T13:34:06;4.75;;;3.40;;
51738;SDS011;37815;52.692;6.226;2022-11-13T13:50:21;4.45;;;3.20;;
51738;SDS011;37815;52.692;6.226;2022-11-13T13:55:38;4.55;;;3.25;;
51738;SDS011;37815;52.692;6.226;2022-11-13T14:00:55;5.40;;;3.72;;
51738;SDS011;37815;52.692;6.226;2022-11-13T14:06:20;4.03;;;2.70;;
51738;SDS011;37815;52.692;6.226;2022-11-13T14:11:25;5.70;;;3.13;;
51738;SDS011;37815;52.692;6.226;2022-11-13T14:16:28;4.25;;;3.08;;
51738;SDS011;37815;52.692;6.226;2022-11-13T14:21:29;3.88;;;3.05;;
51738;SDS011;37815;52.692;6.226;2022-11-13T14:26:30;5.03;;;2.97;;
51738;SDS011;37815;52.692;6.226;2022-11-13T14:31:32;4.53;;;3.10;;
51738;SDS011;37815;52.692;6.226;2022-11-13T14:36:34;3.92;;;2.80;;
51738;SDS011;37815;52.692;6.226;2022-11-13T14:41:40;4.95;;;2.90;;
51738;SDS011;37815;52.692;6.226;2022-11-13T14:46:46;5.72;;;2.80;;
51738;SDS011;37815;52.692;6.226;2022-11-13T14:51:58;5.43;;;3.15;;
51738;SDS011;37815;52.692;6.226;2022-11-13T14:57:07;4.43;;;2.95;;
51738;SDS011;37815;52.692;6.226;2022-11-13T15:02:11;5.00;;;3.03;;
51738;SDS011;37815;52.692;6.226;2022-11-13T15:07:18;3.63;;;2.72;;
51738;SDS011;37815;52.692;6.226;2022-11-13T15:12:29;3.83;;;2.90;;
51738;SDS011;37815;52.692;6.226;2022-11-13T15:17:30;4.32;;;3.42;;
51738;SDS011;37815;52.692;6.226;2022-11-13T15:22:31;4.38;;;2.72;;
51738;SDS011;37815;52.692;6.226;2022-11-13T15:27:32;3.60;;;2.55;;
51738;SDS011;37815;52.692;6.226;2022-11-13T15:32:34;4.20;;;2.88;;
51738;SDS011;37815;52.692;6.226;2022-11-13T15:37:35;3.28;;;2.55;;
51738;SDS011;37815;52.692;6.226;2022-11-13T15:42:36;4.85;;;3.10;;
51738;SDS011;37815;52.692;6.226;2022-11-13T15:47:37;3.85;;;2.63;;
51738;SDS011;37815;52.692;6.226;2022-11-13T15:52:38;3.95;;;2.42;;
51738;SDS011;37815;52.692;6.226;2022-11-13T15:57:41;4.55;;;2.70;;
51738;SDS011;37815;52.692;6.226;2022-11-13T16:02:42;3.95;;;2.83;;
51738;SDS011;37815;52.692;6.226;2022-11-13T16:07:42;4.10;;;2.95;;
51738;SDS011;37815;52.692;6.226;2022-11-13T16:12:43;4.00;;;2.80;;
51738;SDS011;37815;52.692;6.226;2022-11-13T16:17:51;4.28;;;2.85;;
51738;SDS011;37815;52.692;6.226;2022-11-13T16:22:54;3.75;;;2.70;;
51738;SDS011;37815;52.692;6.226;2022-11-13T16:27:55;4.63;;;2.60;;
51738;SDS011;37815;52.692;6.226;2022-11-13T16:32:56;4.18;;;2.75;;
51738;SDS011;37815;52.692;6.226;2022-11-13T16:37:56;3.97;;;2.80;;
51738;SDS011;37815;52.692;6.226;2022-11-13T16:42:57;4.57;;;3.03;;
51738;SDS011;37815;52.692;6.226;2022-11-13T16:47:58;4.82;;;3.40;;
51738;SDS011;37815;52.692;6.226;2022-11-13T16:52:59;5.20;;;2.92;;
51738;SDS011;37815;52.692;6.226;2022-11-13T16:58:00;3.65;;;2.60;;
51738;SDS011;37815;52.692;6.226;2022-11-13T17:03:01;6.22;;;3.00;;
51738;SDS011;37815;52.692;6.226;2022-11-13T17:08:01;5.28;;;2.90;;
51738;SDS011;37815;52.692;6.226;2022-11-13T17:13:02;5.38;;;3.13;;
51738;SDS011;37815;52.692;6.226;2022-11-13T17:18:03;6.10;;;3.42;;
51738;SDS011;37815;52.692;6.226;2022-11-13T17:23:03;5.18;;;3.40;;
51738;SDS011;37815;52.692;6.226;2022-11-13T17:28:04;5.22;;;3.13;;
51738;SDS011;37815;52.692;6.226;2022-11-13T17:33:05;6.43;;;3.42;;
51738;SDS011;37815;52.692;6.226;2022-11-13T17:38:05;4.93;;;3.10;;
51738;SDS011;37815;52.692;6.226;2022-11-13T17:43:06;6.43;;;3.38;;
51738;SDS011;37815;52.692;6.226;2022-11-13T17:48:07;5.35;;;3.58;;
51738;SDS011;37815;52.692;6.226;2022-11-13T17:53:08;5.72;;;3.25;;
51738;SDS011;37815;52.692;6.226;2022-11-13T17:58:08;5.50;;;3.80;;
51738;SDS011;37815;52.692;6.226;2022-11-13T18:03:09;6.10;;;3.67;;
51738;SDS011;37815;52.692;6.226;2022-11-13T18:08:10;5.97;;;4.00;;
51738;SDS011;37815;52.692;6.226;2022-11-13T18:13:11;6.70;;;3.90;;
51738;SDS011;37815;52.692;6.226;2022-11-13T18:18:12;6.65;;;3.92;;
51738;SDS011;37815;52.692;6.226;2022-11-13T18:23:12;6.63;;;3.60;;
51738;SDS011;37815;52.692;6.226;2022-11-13T18:28:14;4.95;;;3.60;;
51738;SDS011;37815;52.692;6.226;2022-11-13T18:33:16;6.15;;;3.67;;
51738;SDS011;37815;52.692;6.226;2022-11-13T18:38:17;5.63;;;3.95;;
51738;SDS011;37815;52.692;6.226;2022-11-13T18:43:18;8.05;;;4.82;;
51738;SDS011;37815;52.692;6.226;2022-11-13T18:48:19;6.88;;;4.07;;
51738;SDS011;37815;52.692;6.226;2022-11-13T18:53:19;7.20;;;4.47;;
51738;SDS011;37815;52.692;6.226;2022-11-13T18:58:20;5.93;;;3.80;;
51738;SDS011;37815;52.692;6.226;2022-11-13T19:03:21;7.10;;;4.43;;
51738;SDS011;37815;52.692;6.226;2022-11-13T19:08:23;6.68;;;4.32;;
51738;SDS011;37815;52.692;6.226;2022-11-13T19:13:23;6.85;;;4.38;;
51738;SDS011;37815;52.692;6.226;2022-11-13T19:18:26;7.90;;;4.22;;
51738;SDS011;37815;52.692;6.226;2022-11-13T19:23:26;7.25;;;4.80;;
51738;SDS011;37815;52.692;6.226;2022-11-13T19:28:27;6.80;;;4.72;;
51738;SDS011;37815;52.692;6.226;2022-11-13T19:33:29;7.95;;;4.78;;
51738;SDS011;37815;52.692;6.226;2022-11-13T19:38:29;8.25;;;4.90;;
51738;SDS011;37815;52.692;6.226;2022-11-13T19:43:30;7.97;;;4.68;;
51738;SDS011;37815;52.692;6.226;2022-11-13T19:48:32;8.77;;;5.35;;
51738;SDS011;37815;52.692;6.226;2022-11-13T19:53:34;9.50;;;5.20;;
51738;SDS011;37815;52.692;6.226;2022-11-13T19:58:35;8.00;;;4.88;;
51738;SDS011;37815;52.692;6.226;2022-11-13T20:03:36;10.00;;;5.53;;
51738;SDS011;37815;52.692;6.226;2022-11-13T20:08:37;9.52;;;5.63;;
51738;SDS011;37815;52.692;6.226;2022-11-13T20:13:38;10.48;;;6.00;;
51738;SDS011;37815;52.692;6.226;2022-11-13T20:18:40;9.23;;;6.03;;
51738;SDS011;37815;52.692;6.226;2022-11-13T20:23:42;8.18;;;5.65;;
51738;SDS011;37815;52.692;6.226;2022-11-13T20:28:43;9.48;;;5.80;;
51738;SDS011;37815;52.692;6.226;2022-11-13T20:33:44;10.05;;;6.18;;
51738;SDS011;37815;52.692;6.226;2022-11-13T20:38:47;9.88;;;5.90;;
51738;SDS011;37815;52.692;6.226;2022-11-13T20:43:52;10.60;;;5.68;;
51738;SDS011;37815;52.692;6.226;2022-11-13T20:48:55;9.30;;;6.30;;
51738;SDS011;37815;52.692;6.226;2022-11-13T20:53:56;10.18;;;6.15;;
51738;SDS011;37815;52.692;6.226;2022-11-13T20:58:57;11.80;;;6.57;;
51738;SDS011;37815;52.692;6.226;2022-11-13T21:03:58;12.88;;;7.00;;
51738;SDS011;37815;52.692;6.226;2022-11-13T21:08:59;11.25;;;6.80;;
51738;SDS011;37815;52.692;6.226;2022-11-13T21:14:00;12.80;;;6.55;;
51738;SDS011;37815;52.692;6.226;2022-11-13T21:19:01;12.32;;;7.28;;
51738;SDS011;37815;52.692;6.226;2022-11-13T21:24:02;11.13;;;6.80;;
51738;SDS011;37815;52.692;6.226;2022-11-13T21:29:03;13.25;;;7.07;;
51738;SDS011;37815;52.692;6.226;2022-11-13T21:34:04;13.30;;;7.60;;
51738;SDS011;37815;52.692;6.226;2022-11-13T21:39:04;15.52;;;7.68;;
51738;SDS011;37815;52.692;6.226;2022-11-13T21:44:06;11.82;;;7.15;;
51738;SDS011;37815;52.692;6.226;2022-11-13T21:49:09;14.15;;;7.80;;
51738;SDS011;37815;52.692;6.226;2022-11-13T21:54:12;16.33;;;8.48;;
51738;SDS011;37815;52.692;6.226;2022-11-13T21:59:13;15.40;;;8.02;;
51738;SDS011;37815;52.692;6.226;2022-11-13T22:04:14;17.80;;;9.55;;
51738;SDS011;37815;52.692;6.226;2022-11-13T22:14:22;14.52;;;8.38;;
51738;SDS011;37815;52.692;6.226;2022-11-13T22:19:23;16.63;;;8.90;;
51738;SDS011;37815;52.692;6.226;2022-11-13T22:24:24;17.38;;;9.48;;
51738;SDS011;37815;52.692;6.226;2022-11-13T22:29:25;18.15;;;9.20;;
51738;SDS011;37815;52.692;6.226;2022-11-13T22:34:25;17.60;;;9.40;;
51738;SDS011;37815;52.692;6.226;2022-11-13T22:39:27;19.63;;;9.93;;
51738;SDS011;37815;52.692;6.226;2022-11-13T22:44:28;21.35;;;10.32;;
51738;SDS011;37815;52.692;6.226;2022-11-13T22:49:29;18.08;;;9.95;;
51738;SDS011;37815;52.692;6.226;2022-11-13T22:54:30;18.63;;;9.13;;
51738;SDS011;37815;52.692;6.226;2022-11-13T22:59:30;19.15;;;9.70;;
51738;SDS011;37815;52.692;6.226;2022-11-13T23:04:31;19.13;;;9.10;;
51738;SDS011;37815;52.692;6.226;2022-11-13T23:09:32;18.88;;;9.90;;
51738;SDS011;37815;52.692;6.226;2022-11-13T23:14:32;17.38;;;9.15;;
51738;SDS011;37815;52.692;6.226;2022-11-13T23:19:33;17.50;;;9.30;;
51738;SDS011;37815;52.692;6.226;2022-11-13T23:24:33;17.77;;;9.73;;
51738;SDS011;37815;52.692;6.226;2022-11-13T23:29:34;17.13;;;9.43;;
51738;SDS011;37815;52.692;6.226;2022-11-13T23:34:35;18.40;;;9.63;;
51738;SDS011;37815;52.692;6.226;2022-11-13T23:39:35;17.33;;;8.98;;
51738;SDS011;37815;52.692;6.226;2022-11-13T23:44:36;19.38;;;10.07;;
51738;SDS011;37815;52.692;6.226;2022-11-13T23:49:37;18.48;;;9.57;;
51738;SDS011;37815;52.692;6.226;2022-11-13T23:54:37;20.08;;;9.43;;
51738;SDS011;37815;52.692;6.226;2022-11-13T23:59:38;17.17;;;9.25;;
